sensor_id;sensor_type;location;lat;lon;timestamp;temperature;humidity
17178;DHT22;8704;52.006;4.374;2023-12-14T00:02:23;6.70;99.90
17178;DHT22;8704;52.006;4.374;2023-12-14T00:04:52;6.90;99.90
17178;DHT22;8704;52.006;4.374;2023-12-14T00:07:20;6.60;99.90
17178;DHT22;8704;52.006;4.374;2023-12-14T00:09:48;6.60;99.90
17178;DHT22;8704;52.006;4.374;2023-12-14T00:12:16;7.00;99.90
17178;DHT22;8704;52.006;4.374;2023-12-14T00:14:44;6.60;61.20
17178;DHT22;8704;52.006;4.374;2023-12-14T00:17:13;6.60;99.90
17178;DHT22;8704;52.006;4.374;2023-12-14T00:19:41;6.90;27.90
17178;DHT22;8704;52.006;4.374;2023-12-14T00:22:10;6.70;1.00
17178;DHT22;8704;52.006;4.374;2023-12-14T00:24:38;6.60;1.00
17178;DHT22;8704;52.006;4.374;2023-12-14T00:27:07;7.20;1.00
17178;DHT22;8704;52.006;4.374;2023-12-14T00:29:35;6.60;1.00
17178;DHT22;8704;52.006;4.374;2023-12-14T00:32:03;6.70;1.00
17178;DHT22;8704;52.006;4.374;2023-12-14T00:34:31;6.60;1.00
17178;DHT22;8704;52.006;4.374;2023-12-14T00:36:59;7.40;1.00
17178;DHT22;8704;52.006;4.374;2023-12-14T00:39:29;6.50;1.00
17178;DHT22;8704;52.006;4.374;2023-12-14T00:41:56;6.80;1.00
17178;DHT22;8704;52.006;4.374;2023-12-14T00:44:24;6.50;1.00
17178;DHT22;8704;52.006;4.374;2023-12-14T00:46:52;6.50;1.00
17178;DHT22;8704;52.006;4.374;2023-12-14T00:49:20;7.20;1.00
17178;DHT22;8704;52.006;4.374;2023-12-14T00:51:48;6.90;1.00
17178;DHT22;8704;52.006;4.374;2023-12-14T00:54:16;6.40;1.00
17178;DHT22;8704;52.006;4.374;2023-12-14T00:56:46;7.30;1.00
17178;DHT22;8704;52.006;4.374;2023-12-14T00:59:14;6.40;99.90
17178;DHT22;8704;52.006;4.374;2023-12-14T01:01:42;6.40;99.90
17178;DHT22;8704;52.006;4.374;2023-12-14T01:04:10;6.40;1.00
17178;DHT22;8704;52.006;4.374;2023-12-14T01:06:38;6.40;1.00
17178;DHT22;8704;52.006;4.374;2023-12-14T01:09:06;6.40;1.00
17178;DHT22;8704;52.006;4.374;2023-12-14T01:11:35;6.40;1.00
17178;DHT22;8704;52.006;4.374;2023-12-14T01:14:04;6.40;1.00
17178;DHT22;8704;52.006;4.374;2023-12-14T01:16:32;6.40;99.90
17178;DHT22;8704;52.006;4.374;2023-12-14T01:19:00;7.00;1.00
17178;DHT22;8704;52.006;4.374;2023-12-14T01:21:29;6.90;93.80
17178;DHT22;8704;52.006;4.374;2023-12-14T01:23:57;6.40;8.60
17178;DHT22;8704;52.006;4.374;2023-12-14T01:26:25;6.40;76.30
17178;DHT22;8704;52.006;4.374;2023-12-14T01:28:53;6.70;1.00
17178;DHT22;8704;52.006;4.374;2023-12-14T01:31:22;6.30;1.00
17178;DHT22;8704;52.006;4.374;2023-12-14T01:33:51;6.30;1.00
17178;DHT22;8704;52.006;4.374;2023-12-14T01:36:23;6.40;99.90
17178;DHT22;8704;52.006;4.374;2023-12-14T01:38:52;6.40;93.50
17178;DHT22;8704;52.006;4.374;2023-12-14T01:41:20;6.40;99.90
17178;DHT22;8704;52.006;4.374;2023-12-14T01:43:48;6.30;1.00
17178;DHT22;8704;52.006;4.374;2023-12-14T01:46:16;7.00;1.00
17178;DHT22;8704;52.006;4.374;2023-12-14T01:48:45;7.10;99.90
17178;DHT22;8704;52.006;4.374;2023-12-14T01:51:13;6.60;1.00
17178;DHT22;8704;52.006;4.374;2023-12-14T01:53:41;6.30;1.00
17178;DHT22;8704;52.006;4.374;2023-12-14T01:56:09;6.80;1.00
17178;DHT22;8704;52.006;4.374;2023-12-14T01:58:38;6.30;99.90
17178;DHT22;8704;52.006;4.374;2023-12-14T02:01:11;6.60;99.90
17178;DHT22;8704;52.006;4.374;2023-12-14T02:03:48;6.40;1.00
17178;DHT22;8704;52.006;4.374;2023-12-14T02:06:17;6.30;1.00
17178;DHT22;8704;52.006;4.374;2023-12-14T02:08:45;6.50;1.00
17178;DHT22;8704;52.006;4.374;2023-12-14T02:11:13;6.90;1.00
17178;DHT22;8704;52.006;4.374;2023-12-14T02:13:41;6.30;1.00
17178;DHT22;8704;52.006;4.374;2023-12-14T02:16:10;6.60;1.00
17178;DHT22;8704;52.006;4.374;2023-12-14T02:18:38;6.30;99.90
17178;DHT22;8704;52.006;4.374;2023-12-14T02:21:07;6.20;34.50
17178;DHT22;8704;52.006;4.374;2023-12-14T02:23:43;6.50;1.00
17178;DHT22;8704;52.006;4.374;2023-12-14T02:26:11;7.10;1.00
17178;DHT22;8704;52.006;4.374;2023-12-14T02:28:39;6.40;1.00
17178;DHT22;8704;52.006;4.374;2023-12-14T02:31:07;6.80;1.00
17178;DHT22;8704;52.006;4.374;2023-12-14T02:33:36;6.70;1.00
17178;DHT22;8704;52.006;4.374;2023-12-14T02:36:05;6.30;1.00
17178;DHT22;8704;52.006;4.374;2023-12-14T02:38:33;6.20;99.90
17178;DHT22;8704;52.006;4.374;2023-12-14T02:41:03;6.20;99.90
17178;DHT22;8704;52.006;4.374;2023-12-14T02:43:31;6.20;99.90
17178;DHT22;8704;52.006;4.374;2023-12-14T02:46:00;6.50;1.00
17178;DHT22;8704;52.006;4.374;2023-12-14T02:48:29;6.10;1.00
17178;DHT22;8704;52.006;4.374;2023-12-14T02:50:58;6.20;1.00
17178;DHT22;8704;52.006;4.374;2023-12-14T02:53:27;6.20;99.90
17178;DHT22;8704;52.006;4.374;2023-12-14T02:55:55;6.20;99.90
17178;DHT22;8704;52.006;4.374;2023-12-14T02:58:25;6.20;99.90
17178;DHT22;8704;52.006;4.374;2023-12-14T03:00:53;6.20;99.90
17178;DHT22;8704;52.006;4.374;2023-12-14T03:03:21;6.10;1.00
17178;DHT22;8704;52.006;4.374;2023-12-14T03:05:48;6.20;99.90
17178;DHT22;8704;52.006;4.374;2023-12-14T03:08:16;6.20;99.90
17178;DHT22;8704;52.006;4.374;2023-12-14T03:10:44;6.20;99.90
17178;DHT22;8704;52.006;4.374;2023-12-14T03:13:12;6.10;99.90
17178;DHT22;8704;52.006;4.374;2023-12-14T03:15:42;6.10;1.00
17178;DHT22;8704;52.006;4.374;2023-12-14T03:18:12;6.20;1.00
17178;DHT22;8704;52.006;4.374;2023-12-14T03:20:40;6.20;99.90
17178;DHT22;8704;52.006;4.374;2023-12-14T03:23:08;6.20;99.90
17178;DHT22;8704;52.006;4.374;2023-12-14T03:25:36;6.10;99.90
17178;DHT22;8704;52.006;4.374;2023-12-14T03:28:04;6.10;99.90
17178;DHT22;8704;52.006;4.374;2023-12-14T03:30:33;6.10;99.90
17178;DHT22;8704;52.006;4.374;2023-12-14T03:33:02;6.90;1.00
17178;DHT22;8704;52.006;4.374;2023-12-14T03:35:34;6.10;1.00
17178;DHT22;8704;52.006;4.374;2023-12-14T03:38:02;6.40;1.00
17178;DHT22;8704;52.006;4.374;2023-12-14T03:40:30;6.10;1.00
17178;DHT22;8704;52.006;4.374;2023-12-14T03:42:59;6.70;19.20
17178;DHT22;8704;52.006;4.374;2023-12-14T03:45:27;6.10;1.00
17178;DHT22;8704;52.006;4.374;2023-12-14T03:47:55;6.10;1.00
17178;DHT22;8704;52.006;4.374;2023-12-14T03:50:24;6.10;1.00
17178;DHT22;8704;52.006;4.374;2023-12-14T03:52:52;6.10;1.00
17178;DHT22;8704;52.006;4.374;2023-12-14T03:55:20;6.40;1.00
17178;DHT22;8704;52.006;4.374;2023-12-14T03:57:48;6.10;1.00
17178;DHT22;8704;52.006;4.374;2023-12-14T04:00:17;6.00;1.00
17178;DHT22;8704;52.006;4.374;2023-12-14T04:02:45;6.10;1.00
17178;DHT22;8704;52.006;4.374;2023-12-14T04:05:13;6.10;1.00
17178;DHT22;8704;52.006;4.374;2023-12-14T04:07:43;6.30;83.60
17178;DHT22;8704;52.006;4.374;2023-12-14T04:10:12;6.00;1.00
17178;DHT22;8704;52.006;4.374;2023-12-14T04:12:41;6.10;1.00
17178;DHT22;8704;52.006;4.374;2023-12-14T04:15:10;6.00;1.00
17178;DHT22;8704;52.006;4.374;2023-12-14T04:17:38;6.00;1.00
17178;DHT22;8704;52.006;4.374;2023-12-14T04:20:15;6.00;1.00
17178;DHT22;8704;52.006;4.374;2023-12-14T04:22:45;5.00;1.00
17178;DHT22;8704;52.006;4.374;2023-12-14T04:25:14;7.10;1.00
17178;DHT22;8704;52.006;4.374;2023-12-14T04:27:42;6.00;1.00
17178;DHT22;8704;52.006;4.374;2023-12-14T04:30:10;6.00;1.00
17178;DHT22;8704;52.006;4.374;2023-12-14T04:32:39;6.00;99.90
17178;DHT22;8704;52.006;4.374;2023-12-14T04:35:08;5.90;99.90
17178;DHT22;8704;52.006;4.374;2023-12-14T04:37:36;5.90;1.00
17178;DHT22;8704;52.006;4.374;2023-12-14T04:40:07;5.90;34.60
17178;DHT22;8704;52.006;4.374;2023-12-14T04:42:35;6.00;1.00
17178;DHT22;8704;52.006;4.374;2023-12-14T04:45:04;6.00;1.00
17178;DHT22;8704;52.006;4.374;2023-12-14T04:47:33;5.90;1.00
17178;DHT22;8704;52.006;4.374;2023-12-14T04:50:01;5.90;1.00
17178;DHT22;8704;52.006;4.374;2023-12-14T04:52:29;5.90;1.00
17178;DHT22;8704;52.006;4.374;2023-12-14T04:54:57;5.90;1.00
17178;DHT22;8704;52.006;4.374;2023-12-14T04:57:27;5.90;1.00
17178;DHT22;8704;52.006;4.374;2023-12-14T04:59:55;5.90;1.00
17178;DHT22;8704;52.006;4.374;2023-12-14T05:02:22;6.20;1.00
17178;DHT22;8704;52.006;4.374;2023-12-14T05:04:51;5.90;1.00
17178;DHT22;8704;52.006;4.374;2023-12-14T05:07:19;5.90;1.00
17178;DHT22;8704;52.006;4.374;2023-12-14T05:09:47;5.90;1.00
17178;DHT22;8704;52.006;4.374;2023-12-14T05:12:15;5.90;27.50
17178;DHT22;8704;52.006;4.374;2023-12-14T05:14:44;6.30;1.00
17178;DHT22;8704;52.006;4.374;2023-12-14T05:17:12;5.90;1.00
17178;DHT22;8704;52.006;4.374;2023-12-14T05:19:40;5.90;1.00
17178;DHT22;8704;52.006;4.374;2023-12-14T05:22:08;5.80;1.00
17178;DHT22;8704;52.006;4.374;2023-12-14T05:24:36;5.80;1.00
17178;DHT22;8704;52.006;4.374;2023-12-14T05:27:05;5.80;1.00
17178;DHT22;8704;52.006;4.374;2023-12-14T05:29:33;5.70;1.00
17178;DHT22;8704;52.006;4.374;2023-12-14T05:32:03;5.70;99.90
17178;DHT22;8704;52.006;4.374;2023-12-14T05:34:31;5.70;1.00
17178;DHT22;8704;52.006;4.374;2023-12-14T05:36:59;6.00;99.90
17178;DHT22;8704;52.006;4.374;2023-12-14T05:39:27;5.80;99.90
17178;DHT22;8704;52.006;4.374;2023-12-14T05:41:56;5.50;99.90
17178;DHT22;8704;52.006;4.374;2023-12-14T05:44:24;5.50;99.90
17178;DHT22;8704;52.006;4.374;2023-12-14T05:46:52;5.60;99.90
17178;DHT22;8704;52.006;4.374;2023-12-14T05:49:21;5.40;99.90
17178;DHT22;8704;52.006;4.374;2023-12-14T05:51:50;5.30;99.90
17178;DHT22;8704;52.006;4.374;2023-12-14T05:54:18;5.30;99.90
17178;DHT22;8704;52.006;4.374;2023-12-14T05:56:47;5.20;99.90
17178;DHT22;8704;52.006;4.374;2023-12-14T05:59:15;5.20;99.90
17178;DHT22;8704;52.006;4.374;2023-12-14T06:01:44;5.10;99.90
17178;DHT22;8704;52.006;4.374;2023-12-14T06:04:12;5.10;99.90
17178;DHT22;8704;52.006;4.374;2023-12-14T06:06:42;5.10;99.90
17178;DHT22;8704;52.006;4.374;2023-12-14T06:09:10;5.00;99.90
17178;DHT22;8704;52.006;4.374;2023-12-14T06:11:38;5.10;1.00
17178;DHT22;8704;52.006;4.374;2023-12-14T06:14:06;5.00;1.00
17178;DHT22;8704;52.006;4.374;2023-12-14T06:16:34;5.80;1.00
17178;DHT22;8704;52.006;4.374;2023-12-14T06:19:02;5.10;1.00
17178;DHT22;8704;52.006;4.374;2023-12-14T06:21:30;4.80;1.00
17178;DHT22;8704;52.006;4.374;2023-12-14T06:24:01;4.80;1.00
17178;DHT22;8704;52.006;4.374;2023-12-14T06:26:30;4.80;1.00
17178;DHT22;8704;52.006;4.374;2023-12-14T06:28:58;5.10;1.00
17178;DHT22;8704;52.006;4.374;2023-12-14T06:31:26;4.70;1.00
17178;DHT22;8704;52.006;4.374;2023-12-14T06:33:54;4.70;99.90
17178;DHT22;8704;52.006;4.374;2023-12-14T06:36:26;5.80;28.90
17178;DHT22;8704;52.006;4.374;2023-12-14T06:38:57;4.70;90.50
17178;DHT22;8704;52.006;4.374;2023-12-14T06:41:27;4.50;1.00
17178;DHT22;8704;52.006;4.374;2023-12-14T06:43:55;4.50;99.90
17178;DHT22;8704;52.006;4.374;2023-12-14T06:46:23;4.50;99.90
17178;DHT22;8704;52.006;4.374;2023-12-14T06:48:51;4.40;99.90
17178;DHT22;8704;52.006;4.374;2023-12-14T06:51:20;4.60;99.90
17178;DHT22;8704;52.006;4.374;2023-12-14T06:53:48;4.60;99.90
17178;DHT22;8704;52.006;4.374;2023-12-14T06:56:16;4.30;1.00
17178;DHT22;8704;52.006;4.374;2023-12-14T06:58:46;4.30;1.00
17178;DHT22;8704;52.006;4.374;2023-12-14T07:01:16;4.20;1.00
17178;DHT22;8704;52.006;4.374;2023-12-14T07:03:45;4.20;1.00
17178;DHT22;8704;52.006;4.374;2023-12-14T07:06:13;4.10;1.00
17178;DHT22;8704;52.006;4.374;2023-12-14T07:08:42;4.10;1.00
17178;DHT22;8704;52.006;4.374;2023-12-14T07:11:11;4.40;1.00
17178;DHT22;8704;52.006;4.374;2023-12-14T07:13:40;4.00;1.00
17178;DHT22;8704;52.006;4.374;2023-12-14T07:16:10;4.10;92.00
17178;DHT22;8704;52.006;4.374;2023-12-14T07:18:39;4.00;99.90
17178;DHT22;8704;52.006;4.374;2023-12-14T07:21:08;4.00;99.90
17178;DHT22;8704;52.006;4.374;2023-12-14T07:23:36;3.90;99.90
17178;DHT22;8704;52.006;4.374;2023-12-14T07:26:05;3.90;99.90
17178;DHT22;8704;52.006;4.374;2023-12-14T07:28:34;3.90;1.00
17178;DHT22;8704;52.006;4.374;2023-12-14T07:31:03;4.20;1.00
17178;DHT22;8704;52.006;4.374;2023-12-14T07:33:32;3.80;1.00
17178;DHT22;8704;52.006;4.374;2023-12-14T07:36:03;3.80;42.90
17178;DHT22;8704;52.006;4.374;2023-12-14T07:38:31;3.80;99.90
17178;DHT22;8704;52.006;4.374;2023-12-14T07:41:00;3.80;99.90
17178;DHT22;8704;52.006;4.374;2023-12-14T07:43:28;3.80;1.00
17178;DHT22;8704;52.006;4.374;2023-12-14T07:45:57;3.70;1.00
17178;DHT22;8704;52.006;4.374;2023-12-14T07:48:25;3.70;1.00
17178;DHT22;8704;52.006;4.374;2023-12-14T07:50:57;3.70;55.60
17178;DHT22;8704;52.006;4.374;2023-12-14T07:53:25;3.60;99.90
17178;DHT22;8704;52.006;4.374;2023-12-14T07:55:53;3.60;99.90
17178;DHT22;8704;52.006;4.374;2023-12-14T07:58:21;3.60;1.00
17178;DHT22;8704;52.006;4.374;2023-12-14T08:00:49;3.60;1.00
17178;DHT22;8704;52.006;4.374;2023-12-14T08:03:17;3.60;1.00
17178;DHT22;8704;52.006;4.374;2023-12-14T08:05:46;4.60;1.00
17178;DHT22;8704;52.006;4.374;2023-12-14T08:08:15;3.60;15.40
17178;DHT22;8704;52.006;4.374;2023-12-14T08:10:43;3.50;99.90
17178;DHT22;8704;52.006;4.374;2023-12-14T08:13:11;3.60;99.90
17178;DHT22;8704;52.006;4.374;2023-12-14T08:15:39;3.60;1.00
17178;DHT22;8704;52.006;4.374;2023-12-14T08:18:08;3.60;1.00
17178;DHT22;8704;52.006;4.374;2023-12-14T08:20:36;3.70;1.00
17178;DHT22;8704;52.006;4.374;2023-12-14T08:23:04;3.60;20.00
17178;DHT22;8704;52.006;4.374;2023-12-14T08:25:33;3.70;99.90
17178;DHT22;8704;52.006;4.374;2023-12-14T08:28:02;3.90;99.90
17178;DHT22;8704;52.006;4.374;2023-12-14T08:30:31;3.70;1.00
17178;DHT22;8704;52.006;4.374;2023-12-14T08:32:59;3.70;1.00
17178;DHT22;8704;52.006;4.374;2023-12-14T08:35:28;3.80;1.00
17178;DHT22;8704;52.006;4.374;2023-12-14T08:37:56;3.80;1.00
17178;DHT22;8704;52.006;4.374;2023-12-14T08:40:24;3.80;1.00
17178;DHT22;8704;52.006;4.374;2023-12-14T08:42:54;3.80;99.90
17178;DHT22;8704;52.006;4.374;2023-12-14T08:45:22;4.80;99.90
17178;DHT22;8704;52.006;4.374;2023-12-14T08:47:50;3.90;99.90
17178;DHT22;8704;52.006;4.374;2023-12-14T08:50:18;4.00;99.90
17178;DHT22;8704;52.006;4.374;2023-12-14T08:52:46;4.00;99.90
17178;DHT22;8704;52.006;4.374;2023-12-14T08:55:14;4.10;99.90
17178;DHT22;8704;52.006;4.374;2023-12-14T08:57:43;4.10;99.90
17178;DHT22;8704;52.006;4.374;2023-12-14T09:00:13;4.10;99.90
17178;DHT22;8704;52.006;4.374;2023-12-14T09:02:42;4.10;99.90
17178;DHT22;8704;52.006;4.374;2023-12-14T09:05:12;4.10;99.90
17178;DHT22;8704;52.006;4.374;2023-12-14T09:07:42;4.20;99.90
17178;DHT22;8704;52.006;4.374;2023-12-14T09:10:11;4.20;99.90
17178;DHT22;8704;52.006;4.374;2023-12-14T09:12:39;4.50;1.00
17178;DHT22;8704;52.006;4.374;2023-12-14T09:15:08;5.10;99.90
17178;DHT22;8704;52.006;4.374;2023-12-14T09:17:37;4.20;99.90
17178;DHT22;8704;52.006;4.374;2023-12-14T09:20:07;4.30;1.00
17178;DHT22;8704;52.006;4.374;2023-12-14T09:22:35;4.30;1.00
17178;DHT22;8704;52.006;4.374;2023-12-14T09:25:05;4.30;1.00
17178;DHT22;8704;52.006;4.374;2023-12-14T09:27:33;4.30;1.00
17178;DHT22;8704;52.006;4.374;2023-12-14T09:30:02;4.30;1.00
17178;DHT22;8704;52.006;4.374;2023-12-14T09:32:31;4.30;99.90
17178;DHT22;8704;52.006;4.374;2023-12-14T09:35:01;4.30;99.90
17178;DHT22;8704;52.006;4.374;2023-12-14T09:37:29;4.40;1.00
17178;DHT22;8704;52.006;4.374;2023-12-14T09:39:57;4.50;13.40
17178;DHT22;8704;52.006;4.374;2023-12-14T09:42:25;4.40;13.60
17178;DHT22;8704;52.006;4.374;2023-12-14T09:44:54;5.10;62.10
17178;DHT22;8704;52.006;4.374;2023-12-14T09:47:23;4.50;99.90
17178;DHT22;8704;52.006;4.374;2023-12-14T09:49:51;4.50;99.90
17178;DHT22;8704;52.006;4.374;2023-12-14T09:52:21;4.60;99.90
17178;DHT22;8704;52.006;4.374;2023-12-14T09:54:49;4.60;1.00
17178;DHT22;8704;52.006;4.374;2023-12-14T09:57:21;4.70;1.00
17178;DHT22;8704;52.006;4.374;2023-12-14T09:59:51;4.70;1.00
17178;DHT22;8704;52.006;4.374;2023-12-14T10:02:19;4.80;99.90
17178;DHT22;8704;52.006;4.374;2023-12-14T10:04:48;4.90;31.00
17178;DHT22;8704;52.006;4.374;2023-12-14T10:07:16;5.10;99.90
17178;DHT22;8704;52.006;4.374;2023-12-14T10:09:46;5.00;99.90
17178;DHT22;8704;52.006;4.374;2023-12-14T10:12:14;5.10;1.00
17178;DHT22;8704;52.006;4.374;2023-12-14T10:14:42;5.10;1.00
17178;DHT22;8704;52.006;4.374;2023-12-14T10:17:18;5.50;1.00
17178;DHT22;8704;52.006;4.374;2023-12-14T10:19:48;5.80;99.90
17178;DHT22;8704;52.006;4.374;2023-12-14T10:22:17;5.30;1.00
17178;DHT22;8704;52.006;4.374;2023-12-14T10:24:48;6.20;99.90
17178;DHT22;8704;52.006;4.374;2023-12-14T10:27:16;5.40;99.90
17178;DHT22;8704;52.006;4.374;2023-12-14T10:29:44;5.50;1.00
17178;DHT22;8704;52.006;4.374;2023-12-14T10:32:13;5.50;1.00
17178;DHT22;8704;52.006;4.374;2023-12-14T10:34:41;5.60;1.00
17178;DHT22;8704;52.006;4.374;2023-12-14T10:37:10;5.60;99.90
17178;DHT22;8704;52.006;4.374;2023-12-14T10:39:42;5.80;1.00
17178;DHT22;8704;52.006;4.374;2023-12-14T10:42:12;6.30;99.90
17178;DHT22;8704;52.006;4.374;2023-12-14T10:44:49;5.70;71.10
17178;DHT22;8704;52.006;4.374;2023-12-14T10:47:22;5.80;99.90
17178;DHT22;8704;52.006;4.374;2023-12-14T10:49:51;5.80;1.00
17178;DHT22;8704;52.006;4.374;2023-12-14T10:52:19;5.80;94.70
17178;DHT22;8704;52.006;4.374;2023-12-14T10:54:53;5.80;1.00
17178;DHT22;8704;52.006;4.374;2023-12-14T10:57:25;5.90;11.20
17178;DHT22;8704;52.006;4.374;2023-12-14T10:59:57;6.00;1.00
17178;DHT22;8704;52.006;4.374;2023-12-14T11:02:26;6.00;99.90
17178;DHT22;8704;52.006;4.374;2023-12-14T11:04:55;6.00;1.00
17178;DHT22;8704;52.006;4.374;2023-12-14T11:07:47;6.00;1.00
17178;DHT22;8704;52.006;4.374;2023-12-14T11:10:20;6.20;1.00
17178;DHT22;8704;52.006;4.374;2023-12-14T11:13:01;6.10;1.00
17178;DHT22;8704;52.006;4.374;2023-12-14T11:15:30;6.10;99.90
17178;DHT22;8704;52.006;4.374;2023-12-14T11:18:22;6.60;1.00
17178;DHT22;8704;52.006;4.374;2023-12-14T11:20:56;6.20;1.00
17178;DHT22;8704;52.006;4.374;2023-12-14T11:23:33;6.20;1.00
17178;DHT22;8704;52.006;4.374;2023-12-14T11:26:03;6.20;1.00
17178;DHT22;8704;52.006;4.374;2023-12-14T11:28:35;6.20;1.00
17178;DHT22;8704;52.006;4.374;2023-12-14T11:31:05;7.10;99.90
17178;DHT22;8704;52.006;4.374;2023-12-14T11:33:35;6.30;99.90
17178;DHT22;8704;52.006;4.374;2023-12-14T11:36:11;6.30;1.00
17178;DHT22;8704;52.006;4.374;2023-12-14T11:38:41;6.30;1.00
17178;DHT22;8704;52.006;4.374;2023-12-14T11:41:09;6.90;1.00
17178;DHT22;8704;52.006;4.374;2023-12-14T11:43:43;6.30;1.00
17178;DHT22;8704;52.006;4.374;2023-12-14T11:46:12;6.40;1.00
17178;DHT22;8704;52.006;4.374;2023-12-14T11:48:43;6.40;1.00
17178;DHT22;8704;52.006;4.374;2023-12-14T11:51:11;6.40;1.00
17178;DHT22;8704;52.006;4.374;2023-12-14T11:53:40;7.10;1.00
17178;DHT22;8704;52.006;4.374;2023-12-14T11:56:09;6.50;1.00
17178;DHT22;8704;52.006;4.374;2023-12-14T11:58:43;6.70;1.00
17178;DHT22;8704;52.006;4.374;2023-12-14T12:01:13;7.20;1.00
17178;DHT22;8704;52.006;4.374;2023-12-14T12:03:41;6.50;1.00
17178;DHT22;8704;52.006;4.374;2023-12-14T12:06:20;6.80;1.00
17178;DHT22;8704;52.006;4.374;2023-12-14T12:08:49;6.60;1.00
17178;DHT22;8704;52.006;4.374;2023-12-14T12:11:17;6.70;99.90
17178;DHT22;8704;52.006;4.374;2023-12-14T12:13:51;6.70;99.90
17178;DHT22;8704;52.006;4.374;2023-12-14T12:16:20;6.70;1.00
17178;DHT22;8704;52.006;4.374;2023-12-14T12:18:49;7.30;1.00
17178;DHT22;8704;52.006;4.374;2023-12-14T12:21:18;6.70;1.00
17178;DHT22;8704;52.006;4.374;2023-12-14T12:23:46;6.80;99.90
17178;DHT22;8704;52.006;4.374;2023-12-14T12:26:15;7.30;1.00
17178;DHT22;8704;52.006;4.374;2023-12-14T12:28:43;6.90;1.00
17178;DHT22;8704;52.006;4.374;2023-12-14T12:31:12;7.20;1.00
17178;DHT22;8704;52.006;4.374;2023-12-14T12:33:40;6.90;99.90
17178;DHT22;8704;52.006;4.374;2023-12-14T12:36:09;6.90;99.90
17178;DHT22;8704;52.006;4.374;2023-12-14T12:38:37;6.90;1.00
17178;DHT22;8704;52.006;4.374;2023-12-14T12:41:07;7.10;99.90
17178;DHT22;8704;52.006;4.374;2023-12-14T12:43:35;7.30;99.90
17178;DHT22;8704;52.006;4.374;2023-12-14T12:46:04;6.90;1.00
17178;DHT22;8704;52.006;4.374;2023-12-14T12:48:33;7.00;99.90
17178;DHT22;8704;52.006;4.374;2023-12-14T12:51:03;7.00;99.90
17178;DHT22;8704;52.006;4.374;2023-12-14T12:53:31;7.00;99.90
17178;DHT22;8704;52.006;4.374;2023-12-14T12:56:00;7.00;99.90
17178;DHT22;8704;52.006;4.374;2023-12-14T12:58:29;7.30;1.00
17178;DHT22;8704;52.006;4.374;2023-12-14T13:00:57;7.10;1.00
17178;DHT22;8704;52.006;4.374;2023-12-14T13:03:25;7.10;99.90
17178;DHT22;8704;52.006;4.374;2023-12-14T13:05:55;7.60;99.90
17178;DHT22;8704;52.006;4.374;2023-12-14T13:08:23;7.10;1.00
17178;DHT22;8704;52.006;4.374;2023-12-14T13:10:51;7.40;1.00
17178;DHT22;8704;52.006;4.374;2023-12-14T13:13:22;7.30;1.00
17178;DHT22;8704;52.006;4.374;2023-12-14T13:15:50;7.80;99.90
17178;DHT22;8704;52.006;4.374;2023-12-14T13:18:18;7.10;99.90
17178;DHT22;8704;52.006;4.374;2023-12-14T13:20:47;7.20;99.90
17178;DHT22;8704;52.006;4.374;2023-12-14T13:23:16;7.10;99.90
17178;DHT22;8704;52.006;4.374;2023-12-14T13:25:44;7.50;1.00
17178;DHT22;8704;52.006;4.374;2023-12-14T13:28:13;7.30;1.00
17178;DHT22;8704;52.006;4.374;2023-12-14T13:30:44;7.10;1.00
17178;DHT22;8704;52.006;4.374;2023-12-14T13:33:12;7.20;1.00
17178;DHT22;8704;52.006;4.374;2023-12-14T13:35:41;7.20;99.90
17178;DHT22;8704;52.006;4.374;2023-12-14T13:38:10;7.20;99.90
17178;DHT22;8704;52.006;4.374;2023-12-14T13:40:39;7.20;81.70
17178;DHT22;8704;52.006;4.374;2023-12-14T13:43:07;7.20;99.90
17178;DHT22;8704;52.006;4.374;2023-12-14T13:45:38;7.80;1.00
17178;DHT22;8704;52.006;4.374;2023-12-14T13:48:08;7.20;1.00
17178;DHT22;8704;52.006;4.374;2023-12-14T13:50:36;7.40;99.90
17178;DHT22;8704;52.006;4.374;2023-12-14T13:53:05;7.20;1.00
17178;DHT22;8704;52.006;4.374;2023-12-14T13:55:34;7.20;99.90
17178;DHT22;8704;52.006;4.374;2023-12-14T13:58:03;7.70;99.90
17178;DHT22;8704;52.006;4.374;2023-12-14T14:00:31;7.40;99.90
17178;DHT22;8704;52.006;4.374;2023-12-14T14:03:01;7.30;99.90
17178;DHT22;8704;52.006;4.374;2023-12-14T14:05:30;8.30;1.00
17178;DHT22;8704;52.006;4.374;2023-12-14T14:07:58;7.30;1.00
17178;DHT22;8704;52.006;4.374;2023-12-14T14:10:27;7.40;99.90
17178;DHT22;8704;52.006;4.374;2023-12-14T14:12:55;7.70;1.00
17178;DHT22;8704;52.006;4.374;2023-12-14T14:15:24;7.60;1.00
17178;DHT22;8704;52.006;4.374;2023-12-14T14:17:52;7.40;1.00
17178;DHT22;8704;52.006;4.374;2023-12-14T14:20:21;7.50;1.00
17178;DHT22;8704;52.006;4.374;2023-12-14T14:22:51;7.50;1.00
17178;DHT22;8704;52.006;4.374;2023-12-14T14:25:19;7.60;99.90
17178;DHT22;8704;52.006;4.374;2023-12-14T14:27:47;7.40;1.00
17178;DHT22;8704;52.006;4.374;2023-12-14T14:30:15;7.70;1.00
17178;DHT22;8704;52.006;4.374;2023-12-14T14:32:45;7.50;99.90
17178;DHT22;8704;52.006;4.374;2023-12-14T14:35:14;7.50;99.90
17178;DHT22;8704;52.006;4.374;2023-12-14T14:37:42;7.50;99.90
17178;DHT22;8704;52.006;4.374;2023-12-14T14:40:13;7.60;1.00
17178;DHT22;8704;52.006;4.374;2023-12-14T14:42:42;7.40;99.90
17178;DHT22;8704;52.006;4.374;2023-12-14T14:45:11;7.40;1.00
17178;DHT22;8704;52.006;4.374;2023-12-14T14:47:40;7.40;1.00
17178;DHT22;8704;52.006;4.374;2023-12-14T14:50:11;7.50;1.00
17178;DHT22;8704;52.006;4.374;2023-12-14T14:52:39;7.60;1.00
17178;DHT22;8704;52.006;4.374;2023-12-14T14:55:08;7.70;1.00
17178;DHT22;8704;52.006;4.374;2023-12-14T14:57:36;7.40;1.00
17178;DHT22;8704;52.006;4.374;2023-12-14T15:00:05;7.50;99.90
17178;DHT22;8704;52.006;4.374;2023-12-14T15:02:34;7.40;1.00
17178;DHT22;8704;52.006;4.374;2023-12-14T15:05:03;7.50;1.00
17178;DHT22;8704;52.006;4.374;2023-12-14T15:07:32;7.40;1.00
17178;DHT22;8704;52.006;4.374;2023-12-14T15:10:00;7.40;99.90
17178;DHT22;8704;52.006;4.374;2023-12-14T15:12:29;7.30;1.00
17178;DHT22;8704;52.006;4.374;2023-12-14T15:14:57;7.30;1.00
17178;DHT22;8704;52.006;4.374;2023-12-14T15:17:26;7.40;1.00
17178;DHT22;8704;52.006;4.374;2023-12-14T15:19:54;7.40;99.90
17178;DHT22;8704;52.006;4.374;2023-12-14T15:22:22;8.10;28.80
17178;DHT22;8704;52.006;4.374;2023-12-14T15:24:51;7.40;1.00
17178;DHT22;8704;52.006;4.374;2023-12-14T15:27:20;7.40;1.00
17178;DHT22;8704;52.006;4.374;2023-12-14T15:29:48;7.60;1.00
17178;DHT22;8704;52.006;4.374;2023-12-14T15:32:17;7.40;1.00
17178;DHT22;8704;52.006;4.374;2023-12-14T15:34:45;8.10;1.00
17178;DHT22;8704;52.006;4.374;2023-12-14T15:37:13;7.80;1.00
17178;DHT22;8704;52.006;4.374;2023-12-14T15:39:41;7.40;1.00
17178;DHT22;8704;52.006;4.374;2023-12-14T15:42:16;7.40;1.00
17178;DHT22;8704;52.006;4.374;2023-12-14T15:44:44;8.00;1.00
17178;DHT22;8704;52.006;4.374;2023-12-14T15:47:12;7.40;1.00
17178;DHT22;8704;52.006;4.374;2023-12-14T15:49:42;7.40;1.00
17178;DHT22;8704;52.006;4.374;2023-12-14T15:52:10;7.40;1.00
17178;DHT22;8704;52.006;4.374;2023-12-14T15:54:38;7.40;1.00
17178;DHT22;8704;52.006;4.374;2023-12-14T15:57:06;7.80;1.00
17178;DHT22;8704;52.006;4.374;2023-12-14T15:59:36;7.30;99.90
17178;DHT22;8704;52.006;4.374;2023-12-14T16:02:05;7.80;99.90
17178;DHT22;8704;52.006;4.374;2023-12-14T16:04:33;7.30;99.90
17178;DHT22;8704;52.006;4.374;2023-12-14T16:07:01;7.30;99.90
17178;DHT22;8704;52.006;4.374;2023-12-14T16:09:30;7.30;1.00
17178;DHT22;8704;52.006;4.374;2023-12-14T16:11:58;7.50;1.00
17178;DHT22;8704;52.006;4.374;2023-12-14T16:14:30;7.90;1.00
17178;DHT22;8704;52.006;4.374;2023-12-14T16:16:59;7.30;1.00
17178;DHT22;8704;52.006;4.374;2023-12-14T16:19:28;7.30;1.00
17178;DHT22;8704;52.006;4.374;2023-12-14T16:21:56;7.10;1.00
17178;DHT22;8704;52.006;4.374;2023-12-14T16:24:24;7.00;1.00